Ajax — V7JF9 — position and weather

sailwx.info

Track history (hours):
 
Tides and Currents Weather Stations Pressure Air Temp Water Temp Dewpoint Dewpoint Depression Visibility Wind Speed Wind Dir Waves Ship Positions

Ajax

Last reported at 2018-Feb-18 20:00 UTC. Time now 2018-Feb-18 20:26 UTC.
Position N 35°31' E 139°58'.

Length 225 m; draft 8 m.

Type: Cargo ship. MMSI: 538002511.

Date/timePositionNaut miles runAvg speedWind from/ knotsBaromVisibWave heightAir tempDewpointWater temp
2018-Feb-18 20:00N 35°31' E 139°58'0 0.0
2018-Feb-18 19:30N 35°31' E 139°58'0 0.1
2018-Feb-18 19:00N 35°31' E 139°58'0 0.0
2018-Feb-18 18:27N 35°31' E 139°58'0 0.0
2018-Feb-18 18:00N 35°31' E 139°58'0 0.0
2018-Feb-18 17:30N 35°31' E 139°58'0 0.1
2018-Feb-18 17:00N 35°31' E 139°58'0 0.1
2018-Feb-18 16:30N 35°31' E 139°58'0 0.0
2018-Feb-18 16:00N 35°31' E 139°58'0 0.1
2018-Feb-18 15:30N 35°31' E 139°58'0 0.0
2018-Feb-18 15:00N 35°31' E 139°58'0 0.1
2018-Feb-18 14:27N 35°31' E 139°58'0 0.0
2018-Feb-18 14:00N 35°31' E 139°58'0 0.1
2018-Feb-18 13:30N 35°31' E 139°58'0 0.0
2018-Feb-18 12:57N 35°31' E 139°58'0 0.0
2018-Feb-18 12:30N 35°31' E 139°58'0 0.0
2018-Feb-18 12:00N 35°31' E 139°58'0 0.0
2018-Feb-18 11:30N 35°31' E 139°58'0 0.1
2018-Feb-18 10:57N 35°31' E 139°58'0 0.0
2018-Feb-18 10:30N 35°31' E 139°58'0 0.1
2018-Feb-18 10:00N 35°31' E 139°58'0 0.0
2018-Feb-18 09:30N 35°31' E 139°58'0 0.0
2018-Feb-18 09:00N 35°31' E 139°58'0 0.1
2018-Feb-18 08:30N 35°31' E 139°58'0 0.1
2018-Feb-18 07:57N 35°31' E 139°58'0 0.0
2018-Feb-18 07:27N 35°31' E 139°58'0 0.1
2018-Feb-18 06:57N 35°31' E 139°58'0 0.3
2018-Feb-18 06:30N 35°31' E 139°58'0 0.1
2018-Feb-18 05:57N 35°32' E 139°58'0 0.1
2018-Feb-18 05:27N 35°31' E 139°58'0 0.2
2018-Feb-18 05:00N 35°31' E 139°58'0 0.1
2018-Feb-18 04:27N 35°31' E 139°58'0 0.1
2018-Feb-18 04:00N 35°31' E 139°58'0 0.1
2018-Feb-18 03:30N 35°31' E 139°58'0 0.1
2018-Feb-18 02:57N 35°31' E 139°58'0 0.2
2018-Feb-18 02:24N 35°31' E 139°58'1 1.5
2018-Feb-18 02:00N 35°31' E 139°57'4 8.3
2018-Feb-18 01:30N 35°29' E 139°53'612.8
2018-Feb-18 01:00N 35°25' E 139°47'612.0
2018-Feb-18 00:31N 35°20' E 139°44'611.3
2018-Feb-18 00:01N 35°14' E 139°47'5 9.5
2018-Feb-17 23:31N 35°10' E 139°46'3 6.5
2018-Feb-17 23:01N 35°07' E 139°44'4 7.2
2018-Feb-17 22:30N 35°04' E 139°42'4 7.9
2018-Feb-17 22:00N 35°00' E 139°40'4 7.8
2018-Feb-17 21:29N 34°56' E 139°42'4 8.0
2018-Feb-17 21:01N 34°53' E 139°44'4 6.7
2018-Feb-17 20:29N 34°50' E 139°47'4 7.8
2018-Feb-17 19:59N 34°50' E 139°51'4 7.9
2018-Feb-17 19:29N 34°50' E 139°56'511.2
2018-Feb-17 19:00N 34°50' E 140°03'611.8
2018-Feb-17 18:30N 34°51' E 140°10'810.2
2018-Feb-17 17:45N 34°53' E 140°19'  
Track history (hours):
 
Tides and Currents Weather Stations Pressure Air Temp Water Temp Dewpoint Dewpoint Depression Visibility Wind Speed Wind Dir Waves Ship Positions

Ajax

Last reported at 2018-Feb-18 20:00 UTC. Time now 2018-Feb-18 20:26 UTC.
Position N 35°31' E 139°58'.

Length 225 m; draft 8 m.

Type: Cargo ship. MMSI: 538002511.

Date/timePositionNaut miles runAvg speedWind from/ knotsBaromVisibWave heightAir tempDewpointWater temp
2018-Feb-18 20:00N 35°31' E 139°58'0 0.0
2018-Feb-18 19:30N 35°31' E 139°58'0 0.1
2018-Feb-18 19:00N 35°31' E 139°58'0 0.0
2018-Feb-18 18:27N 35°31' E 139°58'0 0.0
2018-Feb-18 18:00N 35°31' E 139°58'0 0.0
2018-Feb-18 17:30N 35°31' E 139°58'0 0.1
2018-Feb-18 17:00N 35°31' E 139°58'0 0.1
2018-Feb-18 16:30N 35°31' E 139°58'0 0.0
2018-Feb-18 16:00N 35°31' E 139°58'0 0.1
2018-Feb-18 15:30N 35°31' E 139°58'0 0.0
2018-Feb-18 15:00N 35°31' E 139°58'0 0.1
2018-Feb-18 14:27N 35°31' E 139°58'0 0.0
2018-Feb-18 14:00N 35°31' E 139°58'0 0.1
2018-Feb-18 13:30N 35°31' E 139°58'0 0.0
2018-Feb-18 12:57N 35°31' E 139°58'0 0.0
2018-Feb-18 12:30N 35°31' E 139°58'0 0.0
2018-Feb-18 12:00N 35°31' E 139°58'0 0.0
2018-Feb-18 11:30N 35°31' E 139°58'0 0.1
2018-Feb-18 10:57N 35°31' E 139°58'0 0.0
2018-Feb-18 10:30N 35°31' E 139°58'0 0.1
2018-Feb-18 10:00N 35°31' E 139°58'0 0.0
2018-Feb-18 09:30N 35°31' E 139°58'0 0.0
2018-Feb-18 09:00N 35°31' E 139°58'0 0.1
2018-Feb-18 08:30N 35°31' E 139°58'0 0.1
2018-Feb-18 07:57N 35°31' E 139°58'0 0.0
2018-Feb-18 07:27N 35°31' E 139°58'0 0.1
2018-Feb-18 06:57N 35°31' E 139°58'0 0.3
2018-Feb-18 06:30N 35°31' E 139°58'0 0.1
2018-Feb-18 05:57N 35°32' E 139°58'0 0.1
2018-Feb-18 05:27N 35°31' E 139°58'0 0.2
2018-Feb-18 05:00N 35°31' E 139°58'0 0.1
2018-Feb-18 04:27N 35°31' E 139°58'0 0.1
2018-Feb-18 04:00N 35°31' E 139°58'0 0.1
2018-Feb-18 03:30N 35°31' E 139°58'0 0.1
2018-Feb-18 02:57N 35°31' E 139°58'0 0.2
2018-Feb-18 02:24N 35°31' E 139°58'1 1.5
2018-Feb-18 02:00N 35°31' E 139°57'4 8.3
2018-Feb-18 01:30N 35°29' E 139°53'612.8
2018-Feb-18 01:00N 35°25' E 139°47'612.0
2018-Feb-18 00:31N 35°20' E 139°44'611.3
2018-Feb-18 00:01N 35°14' E 139°47'5 9.5
2018-Feb-17 23:31N 35°10' E 139°46'3 6.5
2018-Feb-17 23:01N 35°07' E 139°44'4 7.2
2018-Feb-17 22:30N 35°04' E 139°42'4 7.9
2018-Feb-17 22:00N 35°00' E 139°40'4 7.8
2018-Feb-17 21:29N 34°56' E 139°42'4 8.0
2018-Feb-17 21:01N 34°53' E 139°44'4 6.7
2018-Feb-17 20:29N 34°50' E 139°47'4 7.8
2018-Feb-17 19:59N 34°50' E 139°51'4 7.9
2018-Feb-17 19:29N 34°50' E 139°56'511.2
2018-Feb-17 19:00N 34°50' E 140°03'611.8
2018-Feb-17 18:30N 34°51' E 140°10'810.2
2018-Feb-17 17:45N 34°53' E 140°19'  

Dump ship's entire track history